Time;durP1;ratioP1;P1;durP2;ratioP2;P2;SDS_P1;SDS_P2;PMS_P1;PMS_P2;Temp;Humidity;BMP_temperature;BMP_pressure;BME280_temperature;BME280_humidity;BME280_pressure;Samples;Min_cycle;Max_cycle;Signal;HPM_P1;HPM_P2
2023/04/14 00:02:06;;;;;;;3.90;1.08;;;3.90;99.90;;;;;;7298568;32;20130;-56
2023/04/14 00:06:08;;;;;;;6.25;1.30;;;3.80;99.90;;;;;;7290749;32;21106;-55
2023/04/14 00:10:10;;;;;;;2.80;0.90;;;3.70;99.90;;;;;;7288406;32;20478;-55
2023/04/14 00:14:11;;;;;;;6.00;1.33;;;3.60;99.90;;;;;;7290101;32;20184;-56
2023/04/14 00:18:13;;;;;;;4.37;1.30;;;3.60;99.90;;;;;;7296277;32;20127;-56
2023/04/14 00:22:15;;;;;;;5.30;1.42;;;3.50;99.90;;;;;;7290186;32;20250;-55
2023/04/14 00:26:16;;;;;;;4.18;1.27;;;3.50;99.90;;;;;;7288968;32;20554;-55
2023/04/14 00:30:18;;;;;;;5.68;1.10;;;3.40;99.90;;;;;;7293474;32;20675;-55
2023/04/14 00:34:20;;;;;;;9.40;1.45;;;3.30;99.90;;;;;;7296733;32;20834;-56
2023/04/14 00:38:22;;;;;;;7.82;1.15;;;3.30;99.90;;;;;;7291143;32;20532;-56
2023/04/14 00:42:24;;;;;;;4.25;1.20;;;3.30;99.90;;;;;;7296977;32;20157;-56
2023/04/14 00:46:26;;;;;;;5.25;1.00;;;3.20;99.90;;;;;;7287045;32;20132;-55
2023/04/14 00:50:28;;;;;;;7.40;1.23;;;3.20;99.90;;;;;;7293436;32;20206;-56
2023/04/14 00:54:31;;;;;;;4.82;1.33;;;3.10;99.90;;;;;;7290765;32;20467;-55
2023/04/14 00:58:33;;;;;;;5.12;1.23;;;3.10;99.90;;;;;;7292215;32;20218;-55
2023/04/14 01:02:35;;;;;;;10.52;1.33;;;3.00;99.90;;;;;;7294348;32;20112;-57
2023/04/14 01:06:37;;;;;;;5.78;1.35;;;3.00;99.90;;;;;;7289774;32;20211;-55
2023/04/14 01:10:57;;;;;;;3.37;1.15;;;3.00;99.90;;;;;;7290502;32;20253;-55
2023/04/14 01:15:19;;;;;;;4.93;1.00;;;2.90;99.90;;;;;;7295936;32;20131;-55
2023/04/14 01:19:31;;;;;;;6.75;1.15;;;2.90;99.90;;;;;;7297363;32;20171;-55
2023/04/14 01:23:45;;;;;;;6.87;1.20;;;2.90;99.90;;;;;;7299732;32;20233;-56
2023/04/14 01:28:04;;;;;;;5.22;1.37;;;2.80;99.90;;;;;;7300673;32;20709;-56
2023/04/14 01:32:10;;;;;;;2.58;1.05;;;2.80;99.90;;;;;;7307655;32;20122;-55
2023/04/14 01:36:23;;;;;;;6.80;1.40;;;2.80;99.90;;;;;;7304742;32;20934;-56
2023/04/14 01:40:26;;;;;;;4.18;1.23;;;2.70;99.90;;;;;;7301053;32;20130;-55
2023/04/14 01:44:30;;;;;;;6.05;1.27;;;2.70;99.90;;;;;;7301004;32;20314;-55
2023/04/14 01:48:32;;;;;;;4.50;1.23;;;2.70;99.90;;;;;;7301615;32;20091;-55
2023/04/14 01:52:36;;;;;;;5.85;1.30;;;2.60;99.90;;;;;;7300089;32;20257;-56
2023/04/14 01:56:40;;;;;;;4.25;1.30;;;2.60;99.90;;;;;;7312050;32;20219;-55
2023/04/14 02:00:43;;;;;;;6.05;1.60;;;2.50;99.90;;;;;;7310550;32;20096;-55
2023/04/14 02:04:46;;;;;;;6.37;1.80;;;2.50;99.90;;;;;;7306395;32;20124;-55
2023/04/14 02:08:48;;;;;;;5.50;1.60;;;2.40;99.90;;;;;;7298670;32;20103;-55
2023/04/14 02:12:53;;;;;;;4.55;1.73;;;2.50;99.90;;;;;;7308439;32;20210;-55
2023/04/14 02:16:57;;;;;;;4.95;1.55;;;2.50;99.90;;;;;;7303619;32;20266;-55
2023/04/14 02:21:02;;;;;;;7.97;1.48;;;2.40;99.90;;;;;;7304408;32;20155;-55
2023/04/14 02:25:04;;;;;;;4.45;1.60;;;2.30;99.90;;;;;;7295173;32;20280;-55
2023/04/14 02:29:14;;;;;;;6.18;1.60;;;2.30;99.90;;;;;;7304529;32;20119;-55
2023/04/14 02:33:20;;;;;;;5.95;1.52;;;2.30;99.90;;;;;;7309448;32;20119;-55
2023/04/14 02:37:30;;;;;;;4.97;1.62;;;2.30;99.90;;;;;;7298967;32;20131;-56
2023/04/14 02:41:32;;;;;;;5.93;1.35;;;2.30;99.90;;;;;;7309220;32;20230;-55
2023/04/14 02:45:37;;;;;;;7.45;1.42;;;2.20;99.90;;;;;;7311093;32;20265;-55
2023/04/14 02:49:43;;;;;;;4.20;1.48;;;2.20;99.90;;;;;;7309676;32;20210;-56
2023/04/14 02:53:45;;;;;;;6.07;1.40;;;2.20;99.90;;;;;;7316997;32;20573;-55
2023/04/14 02:57:48;;;;;;;7.60;1.48;;;2.20;99.90;;;;;;7307900;32;20215;-55
2023/04/14 03:01:51;;;;;;;4.00;1.45;;;2.00;99.90;;;;;;7311638;32;20305;-54
2023/04/14 03:05:54;;;;;;;4.47;1.40;;;2.00;99.90;;;;;;7321183;32;20126;-55
2023/04/14 03:09:57;;;;;;;5.93;1.60;;;2.00;99.90;;;;;;7304202;32;20521;-54
2023/04/14 03:13:59;;;;;;;4.10;1.40;;;1.90;99.90;;;;;;7305515;32;20562;-55
2023/04/14 03:18:01;;;;;;;5.47;1.35;;;1.90;99.90;;;;;;7300980;32;20665;-57
2023/04/14 03:22:03;;;;;;;6.05;1.62;;;1.90;99.90;;;;;;7311886;32;20323;-54
2023/04/14 03:26:06;;;;;;;3.50;1.12;;;1.90;99.90;;;;;;7307747;32;20544;-55
2023/04/14 03:30:11;;;;;;;4.53;1.55;;;1.90;99.90;;;;;;7305080;32;20115;-55
2023/04/14 03:34:15;;;;;;;4.15;1.50;;;1.80;99.90;;;;;;7301603;32;20270;-55
2023/04/14 03:38:18;;;;;;;2.58;1.10;;;1.70;99.90;;;;;;7305693;32;20191;-55
2023/04/14 03:42:24;;;;;;;7.03;1.50;;;1.70;99.90;;;;;;7301597;32;20127;-55
2023/04/14 03:46:27;;;;;;;5.05;1.60;;;1.70;99.90;;;;;;7297732;32;20149;-55
2023/04/14 03:50:35;;;;;;;7.37;1.35;;;1.80;99.90;;;;;;7299750;32;20211;-56
2023/04/14 03:54:39;;;;;;;6.22;1.30;;;1.60;99.90;;;;;;7299952;32;20118;-55
2023/04/14 03:58:48;;;;;;;4.60;1.60;;;1.60;99.90;;;;;;7299497;32;20146;-55
2023/04/14 04:02:50;;;;;;;7.35;1.62;;;1.60;99.90;;;;;;7301898;32;20611;-55
2023/04/14 04:06:53;;;;;;;5.95;1.80;;;1.60;99.90;;;;;;7309328;32;21063;-55
2023/04/14 04:10:55;;;;;;;6.20;1.70;;;1.50;99.90;;;;;;7302913;32;20153;-55
2023/04/14 04:14:57;;;;;;;3.78;1.50;;;1.50;99.90;;;;;;7302251;32;20103;-55
2023/04/14 04:19:02;;;;;;;3.75;1.80;;;1.50;99.90;;;;;;7307391;32;20144;-55
2023/04/14 04:23:06;;;;;;;10.27;1.73;;;1.60;99.90;;;;;;7299274;32;20632;-55
2023/04/14 04:27:08;;;;;;;5.75;1.70;;;1.60;99.90;;;;;;7301370;32;20104;-55
2023/04/14 04:31:27;;;;;;;7.18;1.70;;;1.50;99.90;;;;;;7304047;32;20146;-55
2023/04/14 04:35:31;;;;;;;7.53;1.80;;;1.50;99.90;;;;;;7308559;32;20126;-56
2023/04/14 04:39:33;;;;;;;4.32;1.70;;;1.50;99.90;;;;;;7299129;32;20493;-55
2023/04/14 04:43:34;;;;;;;3.60;1.70;;;1.50;99.90;;;;;;7304314;32;20103;-55
2023/04/14 04:47:36;;;;;;;4.57;1.92;;;1.50;99.90;;;;;;7300515;32;20128;-56
2023/04/14 04:51:37;;;;;;;5.78;2.10;;;1.50;99.90;;;;;;7302954;32;20228;-57
2023/04/14 04:55:40;;;;;;;4.95;2.75;;;1.60;99.90;;;;;;7303344;32;20193;-56
2023/04/14 04:59:42;;;;;;;4.37;1.95;;;1.60;99.90;;;;;;7310150;32;20154;-56
2023/04/14 05:03:44;;;;;;;8.18;2.40;;;1.50;99.90;;;;;;7300704;32;20217;-56
2023/04/14 05:07:46;;;;;;;4.50;2.47;;;1.60;99.90;;;;;;7294379;32;20108;-57
2023/04/14 05:11:48;;;;;;;8.77;2.92;;;1.60;99.90;;;;;;7303033;32;20536;-57
2023/04/14 05:15:50;;;;;;;6.40;2.20;;;1.60;99.90;;;;;;7300105;32;20103;-56
2023/04/14 05:19:52;;;;;;;4.47;2.40;;;1.70;99.90;;;;;;7301230;32;20213;-57
2023/04/14 05:23:54;;;;;;;4.57;2.70;;;1.70;99.90;;;;;;7301017;32;20244;-58
2023/04/14 05:27:56;;;;;;;4.70;2.42;;;1.70;99.90;;;;;;7302303;32;20132;-59
2023/04/14 05:31:57;;;;;;;4.55;2.22;;;1.80;99.90;;;;;;7295571;32;20111;-58
2023/04/14 05:36:00;;;;;;;5.32;2.90;;;1.80;99.90;;;;;;7296585;32;20174;-56
2023/04/14 05:40:02;;;;;;;7.30;2.75;;;1.90;99.90;;;;;;7297581;32;20222;-57
2023/04/14 05:44:04;;;;;;;6.93;3.03;;;1.90;99.90;;;;;;7304119;32;20220;-56
2023/04/14 05:48:06;;;;;;;4.90;2.58;;;2.00;99.90;;;;;;7294256;32;20144;-56
2023/04/14 05:52:08;;;;;;;6.05;2.80;;;2.20;99.90;;;;;;7296469;32;20123;-56
2023/04/14 05:56:10;;;;;;;8.68;3.08;;;2.30;99.90;;;;;;7305082;32;20162;-56
2023/04/14 06:00:12;;;;;;;4.85;2.80;;;2.40;99.90;;;;;;7308907;32;20124;-57
2023/04/14 06:04:14;;;;;;;6.32;3.35;;;2.60;99.90;;;;;;7304598;32;20228;-57
2023/04/14 06:08:18;;;;;;;6.90;3.83;;;2.90;99.90;;;;;;7306352;32;20249;-59
2023/04/14 06:12:19;;;;;;;5.85;3.33;;;3.20;99.90;;;;;;7308241;32;20568;-61
2023/04/14 06:16:21;;;;;;;9.98;3.78;;;3.50;99.90;;;;;;7308944;32;20111;-58
2023/04/14 06:20:24;;;;;;;7.25;3.65;;;3.80;99.90;;;;;;7305601;32;20112;-59
2023/04/14 06:24:26;;;;;;;7.00;3.50;;;4.00;99.90;;;;;;7306858;32;20622;-58
2023/04/14 06:28:27;;;;;;;11.32;3.30;;;4.20;99.90;;;;;;7312675;32;20139;-59
2023/04/14 06:32:29;;;;;;;8.40;3.55;;;4.40;99.90;;;;;;7296007;32;20216;-60
2023/04/14 06:36:31;;;;;;;8.50;3.60;;;4.70;99.90;;;;;;7304169;32;20156;-58
2023/04/14 06:40:33;;;;;;;7.47;3.50;;;4.80;99.90;;;;;;7302725;32;21712;-57
2023/04/14 06:44:34;;;;;;;6.90;2.92;;;5.00;99.90;;;;;;7304433;32;20127;-58
2023/04/14 06:48:36;;;;;;;7.78;3.12;;;5.20;99.90;;;;;;7305305;32;20158;-58
2023/04/14 06:52:38;;;;;;;12.32;3.05;;;5.40;99.90;;;;;;7307027;32;20135;-57
2023/04/14 06:56:40;;;;;;;7.28;2.70;;;5.60;99.90;;;;;;7304124;32;20204;-58
2023/04/14 07:00:42;;;;;;;6.80;2.95;;;5.80;99.90;;;;;;7303740;32;20443;-58
2023/04/14 07:04:44;;;;;;;6.57;2.50;;;6.00;99.90;;;;;;7302822;32;20173;-58
2023/04/14 07:08:45;;;;;;;6.53;2.53;;;6.20;99.90;;;;;;7303117;32;20592;-57
2023/04/14 07:12:47;;;;;;;6.18;2.37;;;6.20;99.90;;;;;;7299346;32;20565;-58
2023/04/14 07:16:50;;;;;;;9.52;2.40;;;6.40;99.90;;;;;;7303590;32;20130;-58
2023/04/14 07:20:53;;;;;;;8.35;2.53;;;6.50;99.90;;;;;;7303296;32;20206;-58
2023/04/14 07:24:54;;;;;;;6.82;2.45;;;6.80;99.90;;;;;;7311449;32;20381;-58
2023/04/14 07:28:56;;;;;;;7.62;2.47;;;7.00;99.90;;;;;;7306162;32;20099;-58
2023/04/14 07:33:00;;;;;;;11.05;2.72;;;7.20;99.90;;;;;;7301141;32;20108;-58
2023/04/14 07:37:02;;;;;;;6.45;2.17;;;7.80;99.90;;;;;;7304190;32;20120;-60
2023/04/14 07:41:05;;;;;;;7.57;2.30;;;8.30;99.90;;;;;;7303438;32;20383;-56
2023/04/14 07:45:08;;;;;;;7.68;2.53;;;8.90;99.90;;;;;;7301005;32;20104;-60
2023/04/14 07:49:10;;;;;;;7.00;2.10;;;9.20;99.90;;;;;;7303434;32;20128;-59
2023/04/14 07:53:11;;;;;;;6.45;2.05;;;9.80;99.90;;;;;;7305290;32;20164;-56
2023/04/14 07:57:13;;;;;;;5.32;2.30;;;10.10;99.90;;;;;;7299353;32;20269;-57
2023/04/14 08:01:15;;;;;;;5.60;2.40;;;10.20;99.90;;;;;;7292153;32;20761;-58
2023/04/14 08:05:17;;;;;;;6.43;2.15;;;10.30;99.90;;;;;;7295135;32;20104;-57
2023/04/14 08:09:19;;;;;;;7.05;2.10;;;10.60;99.90;;;;;;7303781;32;20830;-57
2023/04/14 08:13:20;;;;;;;10.43;2.30;;;10.70;99.90;;;;;;7301870;32;20817;-58
2023/04/14 08:17:23;;;;;;;11.15;2.30;;;11.10;99.90;;;;;;7304781;32;20223;-58
2023/04/14 08:21:25;;;;;;;6.22;2.00;;;11.40;99.90;;;;;;7306570;32;20291;-58
2023/04/14 08:25:27;;;;;;;8.45;2.37;;;11.90;99.90;;;;;;7296380;32;20673;-57
2023/04/14 08:29:29;;;;;;;6.93;2.12;;;12.00;99.90;;;;;;7298434;32;20130;-58
2023/04/14 08:33:32;;;;;;;8.10;2.05;;;12.40;99.90;;;;;;7297187;32;20143;-57
2023/04/14 08:37:34;;;;;;;6.57;1.90;;;12.40;99.90;;;;;;7305412;32;20307;-57
2023/04/14 08:41:38;;;;;;;7.82;2.40;;;13.10;99.90;;;;;;7299445;32;20259;-57
2023/04/14 08:45:40;;;;;;;7.95;2.37;;;13.20;99.90;;;;;;7297231;32;20128;-57
2023/04/14 08:50:13;;;;;;;8.77;2.20;;;13.50;99.90;;;;;;7302562;32;20126;-57
2023/04/14 08:54:16;;;;;;;11.55;2.28;;;14.30;99.90;;;;;;7301855;32;20198;-57
2023/04/14 08:58:18;;;;;;;6.32;2.30;;;15.10;99.90;;;;;;7312163;32;20122;-57
2023/04/14 09:02:20;;;;;;;6.90;1.60;;;15.10;99.90;;;;;;7315156;32;20493;-58
2023/04/14 09:06:23;;;;;;;6.07;1.87;;;15.50;99.90;;;;;;7300103;32;20111;-57
2023/04/14 09:10:25;;;;;;;7.55;1.98;;;15.90;99.90;;;;;;7296904;32;20387;-57
2023/04/14 09:14:27;;;;;;;11.50;1.90;;;15.80;99.90;;;;;;7303453;32;20539;-58
2023/04/14 09:18:30;;;;;;;5.75;1.60;;;16.50;96.50;;;;;;7298676;32;20748;-58
2023/04/14 09:22:35;;;;;;;9.80;2.20;;;16.50;99.10;;;;;;7300129;32;20897;-58
2023/04/14 09:26:37;;;;;;;5.97;1.55;;;17.10;94.40;;;;;;7297262;32;20362;-57
2023/04/14 09:30:39;;;;;;;6.30;1.73;;;16.80;94.20;;;;;;7296078;32;20131;-58
2023/04/14 09:34:53;;;;;;;10.63;2.05;;;17.50;94.80;;;;;;7297325;32;20143;-58
2023/04/14 09:38:59;;;;;;;7.03;1.70;;;18.20;89.90;;;;;;7312040;32;20124;-58
2023/04/14 09:43:01;;;;;;;6.37;1.70;;;19.00;84.70;;;;;;7307349;32;20161;-58
2023/04/14 09:47:04;;;;;;;8.35;1.80;;;20.40;78.50;;;;;;7311556;32;20231;-57
2023/04/14 09:51:09;;;;;;;6.00;1.70;;;20.60;71.20;;;;;;7307357;32;20191;-57
2023/04/14 09:55:13;;;;;;;6.93;1.87;;;19.40;73.80;;;;;;7310444;32;20798;-57
2023/04/14 09:59:14;;;;;;;5.70;1.80;;;20.50;69.70;;;;;;7304664;32;20257;-57
2023/04/14 10:03:30;;;;;;;5.93;1.80;;;21.10;64.80;;;;;;7309329;32;20229;-57
2023/04/14 10:07:32;;;;;;;7.50;1.55;;;20.70;64.10;;;;;;7307558;32;20107;-57
2023/04/14 10:11:35;;;;;;;7.03;1.70;;;21.60;65.60;;;;;;7308834;32;20131;-57
2023/04/14 10:15:37;;;;;;;4.50;1.20;;;21.90;58.50;;;;;;7309678;32;20242;-57
2023/04/14 10:19:38;;;;;;;6.50;1.55;;;22.70;63.90;;;;;;7311268;32;20818;-57
2023/04/14 10:23:41;;;;;;;5.85;1.45;;;22.90;61.40;;;;;;7311145;32;21849;-58
2023/04/14 10:27:44;;;;;;;4.07;1.23;;;22.10;59.60;;;;;;7309688;32;20958;-57
2023/04/14 10:32:02;;;;;;;4.65;1.23;;;22.20;59.20;;;;;;7303529;32;20193;-57
2023/04/14 10:36:04;;;;;;;5.25;1.50;;;20.90;57.20;;;;;;7311831;32;20100;-57
2023/04/14 10:40:06;;;;;;;4.65;1.40;;;20.90;60.30;;;;;;7317183;32;20107;-57
2023/04/14 10:44:25;;;;;;;5.55;1.45;;;21.10;57.70;;;;;;7313442;32;20127;-56
2023/04/14 10:48:35;;;;;;;2.97;1.10;;;19.60;59.60;;;;;;7321419;32;20167;-57
2023/04/14 10:52:38;;;;;;;4.40;1.42;;;19.50;67.10;;;;;;7322958;32;20731;-57
2023/04/14 10:56:40;;;;;;;5.85;1.37;;;20.70;60.20;;;;;;7322090;32;20176;-57
2023/04/14 11:00:42;;;;;;;5.45;1.40;;;21.40;56.30;;;;;;7315339;32;20274;-58
2023/04/14 11:05:10;;;;;;;7.15;1.48;;;21.50;56.80;;;;;;7313704;32;20233;-57
2023/04/14 11:09:30;;;;;;;;;;;20.30;59.20;;;;;;7308215;32;20100;-57
2023/04/14 11:13:33;;;;;;;6.53;1.33;;;20.50;59.70;;;;;;7304762;32;20608;-57
2023/04/14 11:17:39;;;;;;;4.85;0.98;;;20.30;57.60;;;;;;7299539;32;20789;-57
2023/04/14 11:21:48;;;;;;;4.30;0.98;;;20.60;57.50;;;;;;7305582;32;20161;-58
2023/04/14 11:25:50;;;;;;;3.67;1.27;;;20.50;54.40;;;;;;7308760;32;20183;-57
2023/04/14 11:29:53;;;;;;;4.80;1.00;;;21.20;58.40;;;;;;7309765;32;20209;-57
2023/04/14 11:33:55;;;;;;;3.25;1.00;;;20.90;52.70;;;;;;7300921;32;20525;-57
2023/04/14 11:37:58;;;;;;;4.50;1.02;;;21.50;54.70;;;;;;7309181;32;20620;-57
2023/04/14 11:42:00;;;;;;;4.47;1.10;;;20.80;49.80;;;;;;7302210;32;20185;-57
2023/04/14 11:46:04;;;;;;;3.95;1.00;;;20.90;53.50;;;;;;7302364;32;20592;-57
2023/04/14 11:50:07;;;;;;;3.72;0.80;;;20.50;53.10;;;;;;7307938;32;20585;-57
2023/04/14 11:54:11;;;;;;;3.83;0.93;;;20.60;54.20;;;;;;7303125;32;20127;-58
2023/04/14 11:58:15;;;;;;;3.33;1.00;;;20.90;51.80;;;;;;7303228;32;20673;-58
2023/04/14 12:02:18;;;;;;;4.93;1.17;;;22.00;54.20;;;;;;7307680;32;20288;-57
2023/04/14 12:06:21;;;;;;;5.95;1.23;;;21.40;53.80;;;;;;7299399;32;20108;-57
2023/04/14 12:10:23;;;;;;;5.65;1.40;;;21.70;51.30;;;;;;7309445;32;20170;-58
2023/04/14 12:14:25;;;;;;;4.93;1.10;;;21.90;50.00;;;;;;7315718;32;20125;-57
2023/04/14 12:18:28;;;;;;;4.22;1.15;;;22.30;50.20;;;;;;7316759;32;22213;-58
2023/04/14 12:22:30;;;;;;;5.37;1.30;;;22.60;50.40;;;;;;7308313;32;20138;-58
2023/04/14 12:26:32;;;;;;;4.78;1.20;;;22.90;50.40;;;;;;7297479;32;20218;-59
2023/04/14 12:30:36;;;;;;;5.37;1.25;;;23.30;49.70;;;;;;7305032;32;20324;-58
2023/04/14 12:34:38;;;;;;;3.42;0.90;;;23.30;50.90;;;;;;7303202;32;20124;-58
2023/04/14 12:38:40;;;;;;;4.55;1.20;;;24.40;47.70;;;;;;7294433;32;20261;-58
2023/04/14 12:42:46;;;;;;;4.62;1.23;;;24.60;47.10;;;;;;7300376;32;20762;-59
2023/04/14 12:46:49;;;;;;;3.87;1.10;;;23.80;47.60;;;;;;7303508;32;20686;-59
2023/04/14 12:51:09;;;;;;;2.33;0.80;;;21.40;49.50;;;;;;7299470;32;20147;-58
2023/04/14 12:55:27;;;;;;;4.47;1.40;;;20.00;51.70;;;;;;7296007;32;20369;-58
2023/04/14 12:59:30;;;;;;;5.27;1.13;;;20.30;53.60;;;;;;7298550;32;20601;-59
2023/04/14 13:03:41;;;;;;;4.10;1.10;;;20.00;52.50;;;;;;7300730;32;20223;-59
2023/04/14 13:07:43;;;;;;;4.70;1.10;;;19.80;54.30;;;;;;7300780;32;21100;-58
2023/04/14 13:11:45;;;;;;;3.92;0.93;;;19.90;52.20;;;;;;7300523;32;20112;-58
2023/04/14 13:15:46;;;;;;;4.55;0.93;;;18.50;52.40;;;;;;7302517;32;20796;-58
2023/04/14 13:20:09;;;;;;;3.55;1.00;;;19.10;56.00;;;;;;7294841;32;20160;-58
2023/04/14 13:24:10;;;;;;;4.05;0.88;;;20.40;54.70;;;;;;7292065;32;20125;-58
2023/04/14 13:28:12;;;;;;;3.35;0.90;;;20.70;52.30;;;;;;7299319;32;20183;-59
2023/04/14 13:32:14;;;;;;;4.18;0.93;;;21.30;46.90;;;;;;7307935;32;20215;-66
2023/04/14 13:36:16;;;;;;;3.35;0.80;;;21.70;49.70;;;;;;7304344;32;20115;-65
2023/04/14 13:40:17;;;;;;;3.30;0.75;;;21.20;48.50;;;;;;7294129;32;20109;-58
2023/04/14 13:44:19;;;;;;;4.85;0.85;;;21.20;47.90;;;;;;7297186;32;20301;-59
2023/04/14 13:48:21;;;;;;;2.62;0.80;;;20.40;45.30;;;;;;7298453;32;20137;-58
2023/04/14 13:52:22;;;;;;;3.12;1.00;;;18.60;49.70;;;;;;7300142;32;20935;-58
2023/04/14 13:56:26;;;;;;;3.90;1.02;;;17.90;50.10;;;;;;7302746;32;20305;-58
2023/04/14 14:00:27;;;;;;;4.90;1.10;;;17.20;51.90;;;;;;7307429;32;20104;-58
2023/04/14 14:04:29;;;;;;;3.92;0.82;;;17.40;54.50;;;;;;7303193;32;20175;-58
2023/04/14 14:08:33;;;;;;;3.30;0.57;;;19.20;51.00;;;;;;7299517;32;20142;-58
2023/04/14 14:12:35;;;;;;;4.43;0.93;;;19.70;51.10;;;;;;7294624;32;20124;-58
2023/04/14 14:16:38;;;;;;;3.25;0.80;;;20.30;46.50;;;;;;7300473;32;20108;-57
2023/04/14 14:20:39;;;;;;;3.00;0.80;;;19.70;48.90;;;;;;7299978;32;20226;-57
2023/04/14 14:24:41;;;;;;;5.15;0.90;;;18.90;48.50;;;;;;7302199;32;20819;-57
2023/04/14 14:28:44;;;;;;;3.10;0.62;;;17.90;52.40;;;;;;7301241;32;20140;-57
2023/04/14 14:32:46;;;;;;;3.15;0.80;;;18.20;50.90;;;;;;7302814;32;20224;-58
2023/04/14 14:36:48;;;;;;;4.82;0.77;;;19.30;51.30;;;;;;7303647;32;20225;-58
2023/04/14 14:40:50;;;;;;;3.60;0.90;;;20.40;48.20;;;;;;7308196;32;20183;-58
2023/04/14 14:44:52;;;;;;;3.53;0.85;;;20.70;46.50;;;;;;7312491;32;20126;-55
2023/04/14 14:48:53;;;;;;;2.28;0.60;;;20.90;46.50;;;;;;7304831;32;20516;-55
2023/04/14 14:52:55;;;;;;;3.90;0.75;;;20.80;45.40;;;;;;7301027;32;20205;-58
2023/04/14 14:56:57;;;;;;;1.83;0.80;;;21.20;45.10;;;;;;7299030;32;20365;-61
2023/04/14 15:00:59;;;;;;;5.80;0.82;;;21.30;44.90;;;;;;7298902;32;20293;-60
2023/04/14 15:05:01;;;;;;;2.53;0.50;;;20.10;45.90;;;;;;7296791;32;20092;-59
2023/04/14 15:09:04;;;;;;;2.65;0.65;;;18.80;44.10;;;;;;7301943;32;20099;-60
2023/04/14 15:13:06;;;;;;;3.55;0.70;;;18.20;48.20;;;;;;7302766;32;20214;-60
2023/04/14 15:17:08;;;;;;;2.72;0.70;;;17.80;49.80;;;;;;7309120;32;20520;-60
2023/04/14 15:21:10;;;;;;;1.75;0.70;;;17.20;49.60;;;;;;7303663;32;20120;-59
2023/04/14 15:25:12;;;;;;;4.18;0.90;;;16.70;49.80;;;;;;7310297;32;20137;-60
2023/04/14 15:29:15;;;;;;;2.12;0.57;;;16.50;51.10;;;;;;7307538;32;20099;-59
2023/04/14 15:33:16;;;;;;;2.25;0.62;;;16.30;51.00;;;;;;7308762;32;20212;-58
2023/04/14 15:37:18;;;;;;;3.70;0.50;;;16.10;51.60;;;;;;7308767;32;20715;-58
2023/04/14 15:41:20;;;;;;;3.20;0.90;;;16.30;55.90;;;;;;7306372;32;20222;-58
2023/04/14 15:45:22;;;;;;;2.40;0.90;;;16.20;53.00;;;;;;7311329;32;20109;-58
2023/04/14 15:49:24;;;;;;;2.08;0.70;;;16.10;52.90;;;;;;7303316;32;20272;-58
2023/04/14 15:53:26;;;;;;;2.87;0.70;;;15.90;53.20;;;;;;7307097;32;20108;-58
2023/04/14 15:57:28;;;;;;;3.03;0.60;;;16.20;55.30;;;;;;7317092;32;20225;-58
2023/04/14 16:01:29;;;;;;;3.65;0.75;;;16.20;50.70;;;;;;7309091;32;20104;-58
2023/04/14 16:05:31;;;;;;;4.05;0.90;;;15.70;51.20;;;;;;7327478;32;20116;-57
2023/04/14 16:09:34;;;;;;;3.87;1.60;;;15.70;52.90;;;;;;7306510;32;20195;-57
2023/04/14 16:13:35;;;;;;;5.28;1.12;;;15.90;53.10;;;;;;7309594;32;20126;-57
2023/04/14 16:17:37;;;;;;;5.78;2.58;;;15.90;51.50;;;;;;7312027;32;20290;-57
2023/04/14 16:21:39;;;;;;;3.28;0.70;;;15.90;51.10;;;;;;7309826;32;20150;-57
2023/04/14 16:25:41;;;;;;;6.47;1.90;;;15.70;53.70;;;;;;7306132;32;20191;-57
2023/04/14 16:29:43;;;;;;;3.87;1.15;;;15.40;55.00;;;;;;7295000;32;20127;-56
2023/04/14 16:33:45;;;;;;;3.28;0.93;;;15.20;54.90;;;;;;7308152;32;20124;-57
2023/04/14 16:37:46;;;;;;;3.03;0.93;;;14.80;54.90;;;;;;7302689;32;20146;-57
2023/04/14 16:41:48;;;;;;;3.17;0.80;;;14.50;56.70;;;;;;7306802;32;20295;-57
2023/04/14 16:45:50;;;;;;;4.65;1.10;;;14.40;58.10;;;;;;7307162;32;20125;-56
2023/04/14 16:49:52;;;;;;;4.70;1.00;;;14.30;59.00;;;;;;7297229;32;20302;-56
2023/04/14 16:53:55;;;;;;;4.90;0.90;;;14.30;58.00;;;;;;7298437;32;20677;-56
2023/04/14 16:57:57;;;;;;;9.32;3.87;;;14.40;59.80;;;;;;7304947;32;20103;-57
2023/04/14 17:01:59;;;;;;;6.05;0.82;;;14.20;59.90;;;;;;7298259;32;20884;-57
2023/04/14 17:06:01;;;;;;;3.80;1.00;;;14.10;59.00;;;;;;7295672;32;20129;-56
2023/04/14 17:10:03;;;;;;;4.28;1.17;;;14.10;60.10;;;;;;7301167;32;20238;-56
2023/04/14 17:14:05;;;;;;;5.10;1.33;;;14.10;58.80;;;;;;7299396;32;20364;-56
2023/04/14 17:18:07;;;;;;;3.95;1.50;;;14.00;59.00;;;;;;7297435;32;20185;-55
2023/04/14 17:22:09;;;;;;;4.20;1.05;;;14.00;59.10;;;;;;7288330;32;22081;-57
2023/04/14 17:26:10;;;;;;;3.08;0.85;;;13.90;60.60;;;;;;7290685;32;20135;-56
2023/04/14 17:30:13;;;;;;;4.37;0.80;;;13.70;59.70;;;;;;7293050;32;20969;-57
2023/04/14 17:34:17;;;;;;;4.03;1.33;;;13.60;61.20;;;;;;7289250;32;20626;-56
2023/04/14 17:38:19;;;;;;;5.68;1.00;;;13.60;61.90;;;;;;7297332;32;20096;-56
2023/04/14 17:42:23;;;;;;;4.10;0.98;;;13.50;66.30;;;;;;7290083;32;20382;-56
2023/04/14 17:46:32;;;;;;;5.07;1.40;;;13.40;69.40;;;;;;7289378;32;20146;-57
2023/04/14 17:50:34;;;;;;;3.95;1.08;;;13.40;70.20;;;;;;7292004;32;20180;-57
2023/04/14 17:54:35;;;;;;;5.40;1.23;;;13.10;72.60;;;;;;7292716;32;20104;-58
2023/04/14 17:58:37;;;;;;;5.90;1.55;;;13.00;74.10;;;;;;7294917;32;20211;-57
2023/04/14 18:02:40;;;;;;;5.00;1.08;;;12.80;76.50;;;;;;7295455;32;20694;-57
2023/04/14 18:06:42;;;;;;;4.05;1.00;;;12.60;78.80;;;;;;7294903;32;20112;-56
2023/04/14 18:10:43;;;;;;;5.53;1.20;;;12.50;79.10;;;;;;7297658;32;20132;-56
2023/04/14 18:14:48;;;;;;;5.20;1.40;;;12.30;80.80;;;;;;7297558;32;20758;-56
2023/04/14 18:18:49;;;;;;;6.20;2.70;;;12.30;83.60;;;;;;7294612;32;20103;-57
2023/04/14 18:22:56;;;;;;;6.45;1.62;;;12.10;87.70;;;;;;7294775;32;20225;-56
2023/04/14 18:26:58;;;;;;;5.25;1.70;;;11.80;90.40;;;;;;7297313;32;20225;-56
2023/04/14 18:31:00;;;;;;;8.98;2.28;;;11.90;90.70;;;;;;7291495;32;20108;-55
2023/04/14 18:35:02;;;;;;;5.22;2.17;;;11.80;93.50;;;;;;7299047;32;20416;-56
2023/04/14 18:39:05;;;;;;;8.27;2.62;;;11.70;96.40;;;;;;7296647;32;20485;-55
2023/04/14 18:43:07;;;;;;;6.05;2.28;;;11.50;99.30;;;;;;7295945;32;20100;-54
2023/04/14 18:47:09;;;;;;;5.22;2.20;;;11.50;99.90;;;;;;7294632;32;20130;-55
2023/04/14 18:51:10;;;;;;;4.87;2.28;;;11.30;99.90;;;;;;7292845;32;20645;-55
2023/04/14 18:55:13;;;;;;;3.53;1.73;;;11.10;99.90;;;;;;7305964;32;20119;-55
2023/04/14 18:59:14;;;;;;;7.25;2.42;;;11.00;99.90;;;;;;7294603;32;20131;-56
2023/04/14 19:03:17;;;;;;;5.87;2.03;;;10.80;99.90;;;;;;7298584;32;20146;-55
2023/04/14 19:07:19;;;;;;;5.05;1.95;;;10.60;99.90;;;;;;7289756;32;20620;-55
2023/04/14 19:11:20;;;;;;;4.15;1.90;;;10.60;99.90;;;;;;7291063;32;20100;-56
2023/04/14 19:15:24;;;;;;;6.53;1.70;;;10.40;99.90;;;;;;7293529;32;20221;-55
2023/04/14 19:19:26;;;;;;;7.72;1.70;;;10.20;99.90;;;;;;7295185;32;20132;-55
2023/04/14 19:23:28;;;;;;;4.28;2.08;;;10.10;99.90;;;;;;7291863;32;20228;-55
2023/04/14 19:27:31;;;;;;;5.45;1.85;;;10.10;99.90;;;;;;7291699;32;20210;-56
2023/04/14 19:31:33;;;;;;;4.10;1.50;;;9.90;99.90;;;;;;7295303;32;20302;-54
2023/04/14 19:35:35;;;;;;;4.28;1.50;;;9.80;99.90;;;;;;7294473;32;20237;-56
2023/04/14 19:39:37;;;;;;;6.40;1.70;;;9.80;99.90;;;;;;7295118;32;20112;-55
2023/04/14 19:43:38;;;;;;;4.03;1.45;;;9.70;99.90;;;;;;7294290;32;20234;-56
2023/04/14 19:47:40;;;;;;;4.40;1.67;;;9.70;99.90;;;;;;7294501;32;20120;-55
2023/04/14 19:51:42;;;;;;;6.05;1.60;;;9.60;99.90;;;;;;7288616;32;20601;-56
2023/04/14 19:55:49;;;;;;;7.87;1.77;;;9.50;99.90;;;;;;7293461;32;20112;-55
2023/04/14 19:59:50;;;;;;;5.65;1.95;;;9.30;99.90;;;;;;7293036;32;20814;-55
2023/04/14 20:03:55;;;;;;;5.75;2.03;;;9.20;99.90;;;;;;7291373;32;20342;-56
2023/04/14 20:08:12;;;;;;;4.50;1.77;;;9.00;99.90;;;;;;7290241;32;20156;-56
2023/04/14 20:12:14;;;;;;;5.03;2.08;;;9.00;99.90;;;;;;7293622;32;20134;-56
2023/04/14 20:16:16;;;;;;;9.45;1.90;;;9.00;99.90;;;;;;7303031;32;20121;-55
2023/04/14 20:20:18;;;;;;;8.43;1.95;;;9.00;99.90;;;;;;7296712;32;20255;-55
2023/04/14 20:24:20;;;;;;;4.57;1.75;;;8.90;99.90;;;;;;7296178;32;20156;-55
2023/04/14 20:28:24;;;;;;;5.80;2.12;;;8.90;99.90;;;;;;7304958;32;20104;-56
2023/04/14 20:32:26;;;;;;;9.93;2.80;;;8.80;99.90;;;;;;7303899;32;20254;-55
2023/04/14 20:36:30;;;;;;;7.07;3.40;;;8.70;99.90;;;;;;7306175;32;20463;-54
2023/04/14 20:40:32;;;;;;;6.68;2.35;;;8.60;99.90;;;;;;7303539;32;20103;-55
2023/04/14 20:44:34;;;;;;;4.72;2.10;;;8.50;99.90;;;;;;7301889;32;20517;-54
2023/04/14 20:48:35;;;;;;;6.00;2.10;;;8.50;99.90;;;;;;7296473;32;20219;-54
2023/04/14 20:52:38;;;;;;;5.05;2.30;;;8.50;99.90;;;;;;7305237;32;20104;-54
2023/04/14 20:56:40;;;;;;;6.72;2.40;;;8.60;99.90;;;;;;7301599;32;20214;-55
2023/04/14 21:00:42;;;;;;;6.60;2.10;;;8.60;99.90;;;;;;7310659;32;20789;-55
2023/04/14 21:04:43;;;;;;;4.75;2.20;;;8.70;99.90;;;;;;7303458;32;20100;-54
2023/04/14 21:08:46;;;;;;;6.12;2.28;;;8.70;99.90;;;;;;7309716;32;20206;-54
2023/04/14 21:12:47;;;;;;;7.03;2.67;;;8.60;99.90;;;;;;7303441;32;20095;-55